sensor_id;sensor_type;location;lat;lon;timestamp;pressure;altitude;pressure_sealevel;temperature;humidity
25510;BME280;13413;52.336;21.200;2022-11-20T00:01:13;100397.45;;;-0.71;55.83
25510;BME280;13413;52.336;21.200;2022-11-20T00:04:46;100398.05;;;-0.72;55.76
25510;BME280;13413;52.336;21.200;2022-11-20T00:08:06;100399.29;;;-0.78;55.82
25510;BME280;13413;52.336;21.200;2022-11-20T00:11:26;100398.48;;;-0.81;55.91
25510;BME280;13413;52.336;21.200;2022-11-20T00:14:53;100401.36;;;-0.90;55.93
25510;BME280;13413;52.336;21.200;2022-11-20T00:18:25;100405.41;;;-0.91;56.08
25510;BME280;13413;52.336;21.200;2022-11-20T00:21:45;100405.48;;;-0.89;55.99
25510;BME280;13413;52.336;21.200;2022-11-20T00:25:19;100409.86;;;-0.93;56.12
25510;BME280;13413;52.336;21.200;2022-11-20T00:28:54;100406.66;;;-0.94;56.03
25510;BME280;13413;52.336;21.200;2022-11-20T00:32:15;100402.00;;;-1.03;56.02
25510;BME280;13413;52.336;21.200;2022-11-20T00:40:19;100408.91;;;-1.15;56.19
25510;BME280;13413;52.336;21.200;2022-11-20T00:43:39;100409.02;;;-1.17;56.44
25510;BME280;13413;52.336;21.200;2022-11-20T00:46:58;100402.63;;;-1.18;56.27
25510;BME280;13413;52.336;21.200;2022-11-20T00:50:25;100400.85;;;-1.14;56.41
25510;BME280;13413;52.336;21.200;2022-11-20T00:53:46;100400.97;;;-1.13;56.38
25510;BME280;13413;52.336;21.200;2022-11-20T00:57:19;100401.03;;;-1.09;56.46
25510;BME280;13413;52.336;21.200;2022-11-20T01:05:22;100397.20;;;-0.98;56.39
25510;BME280;13413;52.336;21.200;2022-11-20T01:08:43;100394.91;;;-1.06;56.41
25510;BME280;13413;52.336;21.200;2022-11-20T01:12:04;100393.51;;;-1.03;56.59
25510;BME280;13413;52.336;21.200;2022-11-20T01:20:09;100381.77;;;-0.91;56.49
25510;BME280;13413;52.336;21.200;2022-11-20T01:23:31;100374.94;;;-0.92;56.63
25510;BME280;13413;52.336;21.200;2022-11-20T01:26:52;100371.39;;;-0.91;56.71
25510;BME280;13413;52.336;21.200;2022-11-20T01:30:25;100366.25;;;-0.95;56.81
25510;BME280;13413;52.336;21.200;2022-11-20T01:37:17;100362.04;;;-0.91;56.64
25510;BME280;13413;52.336;21.200;2022-11-20T01:40:58;100362.33;;;-0.88;56.66
25510;BME280;13413;52.336;21.200;2022-11-20T01:44:17;100356.45;;;-0.99;56.67
25510;BME280;13413;52.336;21.200;2022-11-20T01:47:41;100356.92;;;-1.01;56.80
25510;BME280;13413;52.336;21.200;2022-11-20T01:51:10;100358.61;;;-1.05;56.90
25510;BME280;13413;52.336;21.200;2022-11-20T01:54:36;100363.28;;;-1.10;56.97
25510;BME280;13413;52.336;21.200;2022-11-20T01:57:59;100354.12;;;-1.13;57.00
25510;BME280;13413;52.336;21.200;2022-11-20T02:01:19;100348.03;;;-1.26;57.59
25510;BME280;13413;52.336;21.200;2022-11-20T02:04:39;100348.69;;;-1.17;57.26
25510;BME280;13413;52.336;21.200;2022-11-20T02:08:13;100344.48;;;-1.09;57.13
25510;BME280;13413;52.336;21.200;2022-11-20T02:11:33;100349.67;;;-1.06;57.10
25510;BME280;13413;52.336;21.200;2022-11-20T02:19:43;100358.84;;;-0.98;57.16
25510;BME280;13413;52.336;21.200;2022-11-20T02:23:07;100357.23;;;-0.92;57.29
25510;BME280;13413;52.336;21.200;2022-11-20T02:26:29;100359.12;;;-0.84;57.02
25510;BME280;13413;52.336;21.200;2022-11-20T02:30:13;100357.93;;;-0.77;57.04
25510;BME280;13413;52.336;21.200;2022-11-20T02:33:32;100361.52;;;-0.71;56.94
25510;BME280;13413;52.336;21.200;2022-11-20T02:36:52;100358.88;;;-0.73;56.92
25510;BME280;13413;52.336;21.200;2022-11-20T02:40:26;100358.58;;;-0.76;56.93
25510;BME280;13413;52.336;21.200;2022-11-20T02:43:59;100362.50;;;-0.83;57.10
25510;BME280;13413;52.336;21.200;2022-11-20T02:47:19;100368.13;;;-0.86;57.00
25510;BME280;13413;52.336;21.200;2022-11-20T02:50:45;100370.20;;;-0.89;57.14
25510;BME280;13413;52.336;21.200;2022-11-20T02:54:19;100370.65;;;-0.88;57.23
25510;BME280;13413;52.336;21.200;2022-11-20T02:57:45;100375.84;;;-0.90;57.18
25510;BME280;13413;52.336;21.200;2022-11-20T03:01:05;100372.28;;;-0.94;57.24
25510;BME280;13413;52.336;21.200;2022-11-20T03:04:38;100370.82;;;-0.98;57.31
25510;BME280;13413;52.336;21.200;2022-11-20T03:08:10;100367.06;;;-1.04;57.36
25510;BME280;13413;52.336;21.200;2022-11-20T03:11:31;100366.41;;;-1.05;57.56
25510;BME280;13413;52.336;21.200;2022-11-20T03:15:06;100359.73;;;-1.07;57.55
25510;BME280;13413;52.336;21.200;2022-11-20T03:18:40;100356.44;;;-1.14;57.91
25510;BME280;13413;52.336;21.200;2022-11-20T03:21:59;100349.34;;;-1.12;57.77
25510;BME280;13413;52.336;21.200;2022-11-20T03:30:03;100347.92;;;-1.16;58.16
25510;BME280;13413;52.336;21.200;2022-11-20T03:33:22;100344.80;;;-1.16;58.19
25510;BME280;13413;52.336;21.200;2022-11-20T03:36:42;100345.77;;;-1.15;58.20
25510;BME280;13413;52.336;21.200;2022-11-20T03:40:16;100340.14;;;-1.17;58.31
25510;BME280;13413;52.336;21.200;2022-11-20T03:43:52;100338.49;;;-1.16;58.27
25510;BME280;13413;52.336;21.200;2022-11-20T03:47:12;100336.70;;;-1.14;58.25
25510;BME280;13413;52.336;21.200;2022-11-20T04:04:14;100330.45;;;-1.43;59.53
25510;BME280;13413;52.336;21.200;2022-11-20T04:07:40;100330.90;;;-1.50;59.44
25510;BME280;13413;52.336;21.200;2022-11-20T04:11:09;100334.16;;;-1.47;59.38
25510;BME280;13413;52.336;21.200;2022-11-20T04:14:42;100330.92;;;-1.53;59.49
25510;BME280;13413;52.336;21.200;2022-11-20T04:18:02;100329.46;;;-1.54;59.25
25510;BME280;13413;52.336;21.200;2022-11-20T04:21:22;100324.77;;;-1.57;59.14
25510;BME280;13413;52.336;21.200;2022-11-20T04:24:48;100326.51;;;-1.54;59.19
25510;BME280;13413;52.336;21.200;2022-11-20T04:28:08;100323.34;;;-1.56;59.10
25510;BME280;13413;52.336;21.200;2022-11-20T04:31:29;100321.64;;;-1.52;59.05
25510;BME280;13413;52.336;21.200;2022-11-20T04:35:02;100321.15;;;-1.47;58.83
25510;BME280;13413;52.336;21.200;2022-11-20T04:38:35;100317.16;;;-1.49;59.04
25510;BME280;13413;52.336;21.200;2022-11-20T04:41:54;100318.10;;;-1.53;58.82
25510;BME280;13413;52.336;21.200;2022-11-20T04:45:24;100310.83;;;-1.61;58.80
25510;BME280;13413;52.336;21.200;2022-11-20T04:48:57;100303.02;;;-1.64;58.90
25510;BME280;13413;52.336;21.200;2022-11-20T04:52:17;100302.82;;;-1.66;58.99
25510;BME280;13413;52.336;21.200;2022-11-20T04:55:43;100307.18;;;-1.64;58.73
25510;BME280;13413;52.336;21.200;2022-11-20T04:59:17;100308.48;;;-1.65;58.75
25510;BME280;13413;52.336;21.200;2022-11-20T05:02:44;100303.56;;;-1.67;58.66
25510;BME280;13413;52.336;21.200;2022-11-20T05:06:06;100305.27;;;-1.66;58.67
25510;BME280;13413;52.336;21.200;2022-11-20T05:09:38;100308.40;;;-1.64;58.87
25510;BME280;13413;52.336;21.200;2022-11-20T05:13:12;100306.66;;;-1.61;58.74
25510;BME280;13413;52.336;21.200;2022-11-20T05:16:31;100306.97;;;-1.61;58.80
25510;BME280;13413;52.336;21.200;2022-11-20T05:20:09;100310.41;;;-1.52;58.46
25510;BME280;13413;52.336;21.200;2022-11-20T05:23:45;100304.77;;;-1.49;58.66
25510;BME280;13413;52.336;21.200;2022-11-20T05:27:04;100305.10;;;-1.51;58.56
25510;BME280;13413;52.336;21.200;2022-11-20T05:39:05;100301.83;;;-1.54;58.59
25510;BME280;13413;52.336;21.200;2022-11-20T05:42:33;100292.67;;;-1.39;58.84
25510;BME280;13413;52.336;21.200;2022-11-20T05:50:26;100291.35;;;-1.39;58.27
25510;BME280;13413;52.336;21.200;2022-11-20T05:53:46;100292.72;;;-1.39;58.30
25510;BME280;13413;52.336;21.200;2022-11-20T05:57:06;100293.55;;;-1.38;58.54
25510;BME280;13413;52.336;21.200;2022-11-20T06:00:33;100298.18;;;-1.35;58.21
25510;BME280;13413;52.336;21.200;2022-11-20T06:04:06;100299.11;;;-1.49;58.08
25510;BME280;13413;52.336;21.200;2022-11-20T06:07:26;100289.54;;;-1.59;58.01
25510;BME280;13413;52.336;21.200;2022-11-20T06:10:53;100281.39;;;-1.70;58.22
25510;BME280;13413;52.336;21.200;2022-11-20T06:14:27;100283.80;;;-1.80;58.31
25510;BME280;13413;52.336;21.200;2022-11-20T06:17:51;100283.13;;;-1.85;58.32
25510;BME280;13413;52.336;21.200;2022-11-20T06:21:13;100278.00;;;-1.81;58.47
25510;BME280;13413;52.336;21.200;2022-11-20T06:24:47;100278.91;;;-1.74;58.58
25510;BME280;13413;52.336;21.200;2022-11-20T06:28:20;100281.85;;;-1.71;58.54
25510;BME280;13413;52.336;21.200;2022-11-20T06:31:40;100283.01;;;-1.68;58.51
25510;BME280;13413;52.336;21.200;2022-11-20T06:35:14;100284.41;;;-1.65;58.15
25510;BME280;13413;52.336;21.200;2022-11-20T06:38:47;100288.73;;;-1.84;58.17
25510;BME280;13413;52.336;21.200;2022-11-20T06:42:07;100285.35;;;-1.96;58.49
25510;BME280;13413;52.336;21.200;2022-11-20T06:59:06;100266.49;;;-1.99;58.70
25510;BME280;13413;52.336;21.200;2022-11-20T07:02:32;100267.53;;;-2.02;58.85
25510;BME280;13413;52.336;21.200;2022-11-20T07:05:53;100262.68;;;-2.02;58.73
25510;BME280;13413;52.336;21.200;2022-11-20T07:09:13;100262.11;;;-1.98;58.89
25510;BME280;13413;52.336;21.200;2022-11-20T07:12:39;100254.89;;;-1.99;58.94
25510;BME280;13413;52.336;21.200;2022-11-20T07:16:18;100254.88;;;-1.94;58.87
25510;BME280;13413;52.336;21.200;2022-11-20T07:19:51;100257.23;;;-1.92;59.04
25510;BME280;13413;52.336;21.200;2022-11-20T07:23:24;100261.72;;;-1.84;59.15
25510;BME280;13413;52.336;21.200;2022-11-20T07:26:43;100256.56;;;-1.79;58.90
25510;BME280;13413;52.336;21.200;2022-11-20T07:30:19;100250.38;;;-1.72;59.17
25510;BME280;13413;52.336;21.200;2022-11-20T07:33:38;100256.67;;;-1.65;58.88
25510;BME280;13413;52.336;21.200;2022-11-20T07:36:56;100254.48;;;-1.56;58.77
25510;BME280;13413;52.336;21.200;2022-11-20T07:40:16;100248.15;;;-1.42;58.80
25510;BME280;13413;52.336;21.200;2022-11-20T07:43:36;100248.43;;;-1.33;58.83
25510;BME280;13413;52.336;21.200;2022-11-20T07:47:09;100252.10;;;-1.21;58.89
25510;BME280;13413;52.336;21.200;2022-11-20T07:50:35;100251.39;;;-1.13;58.92
25510;BME280;13413;52.336;21.200;2022-11-20T07:53:55;100248.08;;;-1.00;58.82
25510;BME280;13413;52.336;21.200;2022-11-20T07:57:14;100238.95;;;-0.88;58.76
25510;BME280;13413;52.336;21.200;2022-11-20T08:00:41;100241.42;;;-0.67;58.75
25510;BME280;13413;52.336;21.200;2022-11-20T08:04:15;100233.80;;;-0.62;58.63
25510;BME280;13413;52.336;21.200;2022-11-20T08:07:38;100230.36;;;-0.48;58.76
25510;BME280;13413;52.336;21.200;2022-11-20T08:10:59;100232.98;;;-0.53;58.72
25510;BME280;13413;52.336;21.200;2022-11-20T08:14:19;100243.64;;;-0.42;58.77
25510;BME280;13413;52.336;21.200;2022-11-20T08:17:45;100241.58;;;-0.20;58.79
25510;BME280;13413;52.336;21.200;2022-11-20T08:21:06;100237.05;;;0.01;58.64
25510;BME280;13413;52.336;21.200;2022-11-20T08:30:16;100234.39;;;0.16;58.31
25510;BME280;13413;52.336;21.200;2022-11-20T08:33:37;100235.52;;;0.24;58.22
25510;BME280;13413;52.336;21.200;2022-11-20T08:36:57;100228.75;;;0.50;58.30
25510;BME280;13413;52.336;21.200;2022-11-20T08:40:17;100229.56;;;0.69;58.17
25510;BME280;13413;52.336;21.200;2022-11-20T08:43:37;100222.77;;;0.89;57.99
25510;BME280;13413;52.336;21.200;2022-11-20T08:47:09;100221.96;;;0.93;57.72
25510;BME280;13413;52.336;21.200;2022-11-20T08:50:45;100219.50;;;0.96;57.66
25510;BME280;13413;52.336;21.200;2022-11-20T08:54:06;100221.38;;;1.05;57.76
25510;BME280;13413;52.336;21.200;2022-11-20T08:57:27;100218.13;;;0.98;57.74
25510;BME280;13413;52.336;21.200;2022-11-20T09:00:51;100216.09;;;0.99;57.83
25510;BME280;13413;52.336;21.200;2022-11-20T09:04:24;100211.92;;;1.03;57.71
25510;BME280;13413;52.336;21.200;2022-11-20T09:07:48;100210.21;;;1.29;58.12
25510;BME280;13413;52.336;21.200;2022-11-20T09:11:07;100201.38;;;1.81;57.68
25510;BME280;13413;52.336;21.200;2022-11-20T09:14:25;100190.54;;;2.07;57.08
25510;BME280;13413;52.336;21.200;2022-11-20T09:17:53;100192.48;;;2.45;57.18
25510;BME280;13413;52.336;21.200;2022-11-20T09:21:13;100196.99;;;2.98;57.09
25510;BME280;13413;52.336;21.200;2022-11-20T09:24:33;100191.77;;;3.28;55.95
25510;BME280;13413;52.336;21.200;2022-11-20T09:28:07;100188.59;;;3.16;55.34
25510;BME280;13413;52.336;21.200;2022-11-20T09:31:27;100182.44;;;3.52;55.81
25510;BME280;13413;52.336;21.200;2022-11-20T09:34:53;100174.52;;;3.88;55.88
25510;BME280;13413;52.336;21.200;2022-11-20T09:38:13;100171.33;;;4.40;55.45
25510;BME280;13413;52.336;21.200;2022-11-20T09:45:51;100161.20;;;4.35;54.40
25510;BME280;13413;52.336;21.200;2022-11-20T09:49:28;100155.77;;;4.89;54.63
25510;BME280;13413;52.336;21.200;2022-11-20T09:53:19;100157.04;;;4.99;53.65
25510;BME280;13413;52.336;21.200;2022-11-20T09:56:50;100154.95;;;4.81;53.24
25510;BME280;13413;52.336;21.200;2022-11-20T10:00:28;100153.75;;;4.65;53.39
25510;BME280;13413;52.336;21.200;2022-11-20T10:03:54;100150.72;;;4.79;53.51
25510;BME280;13413;52.336;21.200;2022-11-20T10:07:19;100154.98;;;4.80;52.71
25510;BME280;13413;52.336;21.200;2022-11-20T10:10:52;100158.16;;;5.02;53.35
25510;BME280;13413;52.336;21.200;2022-11-20T10:14:20;100154.63;;;5.09;52.86
25510;BME280;13413;52.336;21.200;2022-11-20T10:18:08;100158.23;;;4.90;52.20
25510;BME280;13413;52.336;21.200;2022-11-20T10:21:46;100147.66;;;4.72;52.30
25510;BME280;13413;52.336;21.200;2022-11-20T10:25:37;100149.70;;;5.15;52.94
25510;BME280;13413;52.336;21.200;2022-11-20T10:29:14;100149.81;;;5.52;52.62
25510;BME280;13413;52.336;21.200;2022-11-20T10:32:43;100143.02;;;5.86;52.59
25510;BME280;13413;52.336;21.200;2022-11-20T10:36:17;100140.02;;;5.67;51.34
25510;BME280;13413;52.336;21.200;2022-11-20T10:39:53;100134.63;;;5.59;51.15
25510;BME280;13413;52.336;21.200;2022-11-20T10:43:19;100132.19;;;5.58;51.34
25510;BME280;13413;52.336;21.200;2022-11-20T10:46:43;100124.19;;;5.87;52.28
25510;BME280;13413;52.336;21.200;2022-11-20T10:50:26;100124.45;;;6.11;50.73
25510;BME280;13413;52.336;21.200;2022-11-20T10:53:56;100123.84;;;5.76;50.55
25510;BME280;13413;52.336;21.200;2022-11-20T11:01:16;100129.23;;;5.95;50.80
25510;BME280;13413;52.336;21.200;2022-11-20T11:08:13;100130.64;;;6.57;50.81
25510;BME280;13413;52.336;21.200;2022-11-20T11:11:35;100125.73;;;6.77;50.42
25510;BME280;13413;52.336;21.200;2022-11-20T11:15:14;100119.28;;;6.85;50.30
25510;BME280;13413;52.336;21.200;2022-11-20T11:19:06;100117.63;;;6.48;49.41
25510;BME280;13413;52.336;21.200;2022-11-20T11:22:29;100117.60;;;6.29;50.20
25510;BME280;13413;52.336;21.200;2022-11-20T11:25:58;100117.35;;;6.51;49.79
25510;BME280;13413;52.336;21.200;2022-11-20T11:29:32;100111.59;;;6.52;49.37
25510;BME280;13413;52.336;21.200;2022-11-20T11:33:06;100111.33;;;6.58;49.48
25510;BME280;13413;52.336;21.200;2022-11-20T11:36:34;100111.48;;;6.59;49.26
25510;BME280;13413;52.336;21.200;2022-11-20T11:40:02;100117.88;;;6.56;49.03
25510;BME280;13413;52.336;21.200;2022-11-20T11:43:36;100117.02;;;6.53;49.00
25510;BME280;13413;52.336;21.200;2022-11-20T11:46:57;100115.14;;;6.45;49.06
25510;BME280;13413;52.336;21.200;2022-11-20T12:04:13;100097.58;;;6.43;48.85
25510;BME280;13413;52.336;21.200;2022-11-20T12:07:41;100091.89;;;6.42;48.79
25510;BME280;13413;52.336;21.200;2022-11-20T12:11:06;100087.76;;;6.31;48.64
25510;BME280;13413;52.336;21.200;2022-11-20T12:29:32;100066.38;;;5.77;48.84
25510;BME280;13413;52.336;21.200;2022-11-20T12:33:10;100066.87;;;5.67;49.05
25510;BME280;13413;52.336;21.200;2022-11-20T12:36:39;100064.05;;;5.42;49.19
25510;BME280;13413;52.336;21.200;2022-11-20T12:40:28;100057.59;;;5.40;49.45
25510;BME280;13413;52.336;21.200;2022-11-20T12:44:20;100050.00;;;5.37;49.11
25510;BME280;13413;52.336;21.200;2022-11-20T12:48:25;100042.50;;;5.17;49.54
25510;BME280;13413;52.336;21.200;2022-11-20T12:52:11;100045.86;;;5.17;49.80
25510;BME280;13413;52.336;21.200;2022-11-20T12:55:49;100046.60;;;5.07;49.69
25510;BME280;13413;52.336;21.200;2022-11-20T12:59:38;100043.88;;;4.86;49.96
25510;BME280;13413;52.336;21.200;2022-11-20T13:03:36;100036.35;;;4.74;49.95
25510;BME280;13413;52.336;21.200;2022-11-20T13:06:57;100032.89;;;4.60;50.08
25510;BME280;13413;52.336;21.200;2022-11-20T13:10:33;100031.35;;;4.49;50.20
25510;BME280;13413;52.336;21.200;2022-11-20T13:14:07;100028.02;;;4.40;50.22
25510;BME280;13413;52.336;21.200;2022-11-20T13:17:41;100025.17;;;4.38;50.32
25510;BME280;13413;52.336;21.200;2022-11-20T13:30:15;100009.11;;;4.63;50.47
25510;BME280;13413;52.336;21.200;2022-11-20T13:33:36;100010.20;;;4.61;50.40
25510;BME280;13413;52.336;21.200;2022-11-20T13:36:59;100004.86;;;4.62;50.66
25510;BME280;13413;52.336;21.200;2022-11-20T13:40:26;99999.46;;;4.53;50.63
25510;BME280;13413;52.336;21.200;2022-11-20T13:43:46;100001.61;;;4.50;50.86
25510;BME280;13413;52.336;21.200;2022-11-20T13:47:21;99999.45;;;4.49;50.92
25510;BME280;13413;52.336;21.200;2022-11-20T14:04:29;99996.21;;;4.13;51.43
25510;BME280;13413;52.336;21.200;2022-11-20T14:07:51;99995.59;;;4.05;51.68
25510;BME280;13413;52.336;21.200;2022-11-20T14:11:17;99994.71;;;3.99;51.95
25510;BME280;13413;52.336;21.200;2022-11-20T14:14:46;99994.20;;;3.96;51.85
25510;BME280;13413;52.336;21.200;2022-11-20T14:18:33;99996.55;;;3.87;52.01
25510;BME280;13413;52.336;21.200;2022-11-20T14:22:06;99991.23;;;3.85;52.08
25510;BME280;13413;52.336;21.200;2022-11-20T14:25:26;99983.63;;;3.85;52.35
25510;BME280;13413;52.336;21.200;2022-11-20T14:39:25;99969.15;;;4.11;52.44
25510;BME280;13413;52.336;21.200;2022-11-20T14:42:52;99965.45;;;4.07;52.45
25510;BME280;13413;52.336;21.200;2022-11-20T14:46:13;99954.70;;;3.99;52.69
25510;BME280;13413;52.336;21.200;2022-11-20T14:49:41;99954.69;;;3.94;52.81
25510;BME280;13413;52.336;21.200;2022-11-20T14:53:24;99960.09;;;3.77;52.91
25510;BME280;13413;52.336;21.200;2022-11-20T14:56:43;99961.39;;;3.65;53.08
25510;BME280;13413;52.336;21.200;2022-11-20T15:00:27;99967.52;;;3.67;53.46
25510;BME280;13413;52.336;21.200;2022-11-20T15:04:05;99963.44;;;3.62;53.65
25510;BME280;13413;52.336;21.200;2022-11-20T15:07:34;99957.81;;;3.52;53.97
25510;BME280;13413;52.336;21.200;2022-11-20T15:10:56;99960.33;;;3.46;53.79
25510;BME280;13413;52.336;21.200;2022-11-20T15:29:17;99944.36;;;3.07;55.21
25510;BME280;13413;52.336;21.200;2022-11-20T15:32:37;99943.53;;;3.06;55.09
25510;BME280;13413;52.336;21.200;2022-11-20T15:35:56;99948.92;;;3.01;55.47
25510;BME280;13413;52.336;21.200;2022-11-20T15:39:29;99946.31;;;2.85;55.80
25510;BME280;13413;52.336;21.200;2022-11-20T15:42:55;99942.23;;;2.76;56.17
25510;BME280;13413;52.336;21.200;2022-11-20T15:46:18;99941.23;;;2.66;56.25
25510;BME280;13413;52.336;21.200;2022-11-20T15:49:55;99942.69;;;2.67;56.01
25510;BME280;13413;52.336;21.200;2022-11-20T15:53:28;99943.29;;;2.64;56.32
25510;BME280;13413;52.336;21.200;2022-11-20T15:56:49;99944.38;;;2.56;56.52
25510;BME280;13413;52.336;21.200;2022-11-20T16:00:24;99953.82;;;2.52;56.49
25510;BME280;13413;52.336;21.200;2022-11-20T16:03:57;99952.38;;;2.43;56.79
25510;BME280;13413;52.336;21.200;2022-11-20T16:07:18;99956.94;;;2.36;56.73
25510;BME280;13413;52.336;21.200;2022-11-20T16:10:44;99949.10;;;2.38;56.82
25510;BME280;13413;52.336;21.200;2022-11-20T16:14:05;99945.58;;;2.41;56.85
25510;BME280;13413;52.336;21.200;2022-11-20T16:17:39;99944.63;;;2.36;57.08
25510;BME280;13413;52.336;21.200;2022-11-20T16:21:02;99940.83;;;2.35;57.12
25510;BME280;13413;52.336;21.200;2022-11-20T16:24:22;99945.79;;;2.32;57.08
25510;BME280;13413;52.336;21.200;2022-11-20T16:27:41;99952.52;;;2.37;56.92
25510;BME280;13413;52.336;21.200;2022-11-20T16:31:11;99954.56;;;2.38;56.92
25510;BME280;13413;52.336;21.200;2022-11-20T16:34:44;99945.98;;;2.32;57.10
25510;BME280;13413;52.336;21.200;2022-11-20T16:38:18;99947.52;;;2.36;57.14
25510;BME280;13413;52.336;21.200;2022-11-20T16:41:44;99944.70;;;2.37;57.06
25510;BME280;13413;52.336;21.200;2022-11-20T16:45:17;99942.64;;;2.28;57.28
25510;BME280;13413;52.336;21.200;2022-11-20T16:48:37;99944.13;;;2.27;57.30
25510;BME280;13413;52.336;21.200;2022-11-20T16:51:56;99937.92;;;2.24;57.39
25510;BME280;13413;52.336;21.200;2022-11-20T16:55:22;99936.77;;;2.25;57.14
25510;BME280;13413;52.336;21.200;2022-11-20T16:58:56;99934.31;;;2.33;57.11
25510;BME280;13413;52.336;21.200;2022-11-20T17:02:29;99926.57;;;2.38;57.30
25510;BME280;13413;52.336;21.200;2022-11-20T17:05:57;99926.10;;;2.30;57.34
25510;BME280;13413;52.336;21.200;2022-11-20T17:09:29;99922.31;;;2.19;57.76
25510;BME280;13413;52.336;21.200;2022-11-20T17:12:53;99928.20;;;2.14;57.84
25510;BME280;13413;52.336;21.200;2022-11-20T17:16:15;99919.99;;;2.08;57.94
25510;BME280;13413;52.336;21.200;2022-11-20T17:19:48;99921.98;;;2.05;57.94
25510;BME280;13413;52.336;21.200;2022-11-20T17:23:07;99921.02;;;2.04;57.88
25510;BME280;13413;52.336;21.200;2022-11-20T17:26:26;99921.90;;;1.92;58.23
25510;BME280;13413;52.336;21.200;2022-11-20T17:29:58;99929.90;;;1.86;58.10
25510;BME280;13413;52.336;21.200;2022-11-20T17:33:18;99929.67;;;1.82;58.02
25510;BME280;13413;52.336;21.200;2022-11-20T17:36:37;99934.02;;;1.80;58.36
25510;BME280;13413;52.336;21.200;2022-11-20T17:40:18;99924.02;;;1.82;58.27
25510;BME280;13413;52.336;21.200;2022-11-20T17:43:38;99919.54;;;1.79;58.60
25510;BME280;13413;52.336;21.200;2022-11-20T17:46:58;99914.27;;;1.77;58.66
25510;BME280;13413;52.336;21.200;2022-11-20T17:50:32;99909.52;;;1.80;58.51
25510;BME280;13413;52.336;21.200;2022-11-20T17:54:06;99905.66;;;1.72;58.83
25510;BME280;13413;52.336;21.200;2022-11-20T17:57:32;99903.77;;;1.81;58.52
25510;BME280;13413;52.336;21.200;2022-11-20T18:00:54;99891.52;;;1.91;58.31
25510;BME280;13413;52.336;21.200;2022-11-20T18:04:14;99883.84;;;1.91;58.35
25510;BME280;13413;52.336;21.200;2022-11-20T18:07:34;99882.98;;;1.95;58.36
25510;BME280;13413;52.336;21.200;2022-11-20T18:10:53;99876.30;;;2.03;58.13
25510;BME280;13413;52.336;21.200;2022-11-20T18:14:27;99876.95;;;2.06;58.24
25510;BME280;13413;52.336;21.200;2022-11-20T18:17:53;99872.20;;;2.06;58.02
25510;BME280;13413;52.336;21.200;2022-11-20T18:21:13;99869.01;;;2.03;57.87
25510;BME280;13413;52.336;21.200;2022-11-20T18:24:32;99861.12;;;2.05;58.06
25510;BME280;13413;52.336;21.200;2022-11-20T18:28:05;99857.42;;;1.94;57.94
25510;BME280;13413;52.336;21.200;2022-11-20T18:31:25;99851.64;;;1.94;57.99
25510;BME280;13413;52.336;21.200;2022-11-20T18:34:46;99848.16;;;1.98;58.12
25510;BME280;13413;52.336;21.200;2022-11-20T18:38:20;99853.25;;;2.04;58.16
25510;BME280;13413;52.336;21.200;2022-11-20T18:41:39;99858.98;;;2.10;57.89
25510;BME280;13413;52.336;21.200;2022-11-20T18:45:21;99861.92;;;2.18;58.00
25510;BME280;13413;52.336;21.200;2022-11-20T18:48:40;99864.54;;;2.22;57.97
25510;BME280;13413;52.336;21.200;2022-11-20T18:52:01;99862.39;;;2.24;57.70
25510;BME280;13413;52.336;21.200;2022-11-20T18:55:25;99855.46;;;2.24;57.63
25510;BME280;13413;52.336;21.200;2022-11-20T18:59:00;99853.91;;;2.19;57.77
25510;BME280;13413;52.336;21.200;2022-11-20T19:02:21;99849.54;;;2.08;57.51
25510;BME280;13413;52.336;21.200;2022-11-20T19:05:49;99848.17;;;2.00;57.90
25510;BME280;13413;52.336;21.200;2022-11-20T19:09:11;99850.36;;;1.99;57.74
25510;BME280;13413;52.336;21.200;2022-11-20T19:12:39;99844.20;;;1.92;57.86
25510;BME280;13413;52.336;21.200;2022-11-20T19:16:04;99838.38;;;1.84;57.80
25510;BME280;13413;52.336;21.200;2022-11-20T19:19:23;99835.59;;;1.78;57.78
25510;BME280;13413;52.336;21.200;2022-11-20T19:22:51;99835.07;;;1.76;57.83
25510;BME280;13413;52.336;21.200;2022-11-20T19:26:11;99829.41;;;1.75;57.87
25510;BME280;13413;52.336;21.200;2022-11-20T19:29:30;99825.88;;;1.65;57.62
25510;BME280;13413;52.336;21.200;2022-11-20T19:32:50;99815.81;;;1.69;57.90
25510;BME280;13413;52.336;21.200;2022-11-20T19:36:14;99814.33;;;1.72;57.74
25510;BME280;13413;52.336;21.200;2022-11-20T19:39:47;99811.31;;;1.73;57.88
25510;BME280;13413;52.336;21.200;2022-11-20T19:43:05;99811.10;;;1.57;57.90
25510;BME280;13413;52.336;21.200;2022-11-20T19:46:26;99806.94;;;1.43;58.18
25510;BME280;13413;52.336;21.200;2022-11-20T19:49:46;99804.57;;;1.46;58.00
25510;BME280;13413;52.336;21.200;2022-11-20T19:53:20;99800.70;;;1.49;58.14
25510;BME280;13413;52.336;21.200;2022-11-20T19:56:40;99799.91;;;1.50;58.09
25510;BME280;13413;52.336;21.200;2022-11-20T20:03:48;99801.17;;;1.41;58.02
25510;BME280;13413;52.336;21.200;2022-11-20T20:07:09;99796.02;;;1.28;58.23
25510;BME280;13413;52.336;21.200;2022-11-20T20:10:34;99787.70;;;1.20;58.34
25510;BME280;13413;52.336;21.200;2022-11-20T20:14:14;99782.83;;;1.16;58.52
25510;BME280;13413;52.336;21.200;2022-11-20T20:17:40;99785.46;;;1.13;58.47
25510;BME280;13413;52.336;21.200;2022-11-20T20:21:04;99786.80;;;1.10;58.49
25510;BME280;13413;52.336;21.200;2022-11-20T20:24:37;99784.18;;;1.00;58.71
25510;BME280;13413;52.336;21.200;2022-11-20T20:27:56;99781.40;;;1.02;58.82
25510;BME280;13413;52.336;21.200;2022-11-20T20:31:16;99792.25;;;1.07;58.74
25510;BME280;13413;52.336;21.200;2022-11-20T20:34:49;99789.36;;;0.98;58.88
25510;BME280;13413;52.336;21.200;2022-11-20T20:38:09;99787.70;;;0.95;59.22
25510;BME280;13413;52.336;21.200;2022-11-20T20:41:29;99788.97;;;1.01;59.32
25510;BME280;13413;52.336;21.200;2022-11-20T20:45:03;99788.30;;;1.00;59.55
25510;BME280;13413;52.336;21.200;2022-11-20T20:48:38;99786.27;;;1.08;59.50